sensor_id;sensor_type;location;lat;lon;timestamp;pressure;altitude;pressure_sealevel;temperature;humidity
59859;BME280;45734;53.648;9.566;2023-06-14T00:02:28;90991.22;;;-145.06;100.00
59859;BME280;45734;53.648;9.566;2023-06-14T00:07:37;91017.78;;;-145.06;100.00
59859;BME280;45734;53.648;9.566;2023-06-14T00:12:38;91003.47;;;-145.06;100.00
59859;BME280;45734;53.648;9.566;2023-06-14T00:17:40;90942.16;;;-145.06;100.00
59859;BME280;45734;53.648;9.566;2023-06-14T00:22:40;90960.56;;;-145.06;100.00
59859;BME280;45734;53.648;9.566;2023-06-14T00:27:40;90966.69;;;-145.06;100.00
59859;BME280;45734;53.648;9.566;2023-06-14T00:32:41;91025.97;;;-145.06;100.00
59859;BME280;45734;53.648;9.566;2023-06-14T00:37:43;90966.69;;;-145.06;100.00
59859;BME280;45734;53.648;9.566;2023-06-14T00:42:43;91038.22;;;-145.06;100.00
59859;BME280;45734;53.648;9.566;2023-06-14T00:47:45;91040.28;;;-145.06;100.00
59859;BME280;45734;53.648;9.566;2023-06-14T00:52:46;91040.28;;;-145.06;100.00
59859;BME280;45734;53.648;9.566;2023-06-14T00:57:47;91081.16;;;-145.06;100.00
59859;BME280;45734;53.648;9.566;2023-06-14T01:02:48;91030.06;;;-145.06;100.00
59859;BME280;45734;53.648;9.566;2023-06-14T01:08:07;91077.06;;;-145.06;100.00
59859;BME280;45734;53.648;9.566;2023-06-14T01:13:19;91091.38;;;-145.06;100.00
59859;BME280;45734;53.648;9.566;2023-06-14T01:18:20;91113.88;;;-145.06;100.00
59859;BME280;45734;53.648;9.566;2023-06-14T01:23:22;91093.44;;;-145.06;100.00
59859;BME280;45734;53.648;9.566;2023-06-14T01:28:23;91101.59;;;-145.06;100.00
59859;BME280;45734;53.648;9.566;2023-06-14T01:33:26;91109.78;;;-145.06;100.00
59859;BME280;45734;53.648;9.566;2023-06-14T01:38:28;91134.31;;;-145.06;100.00
59859;BME280;45734;53.648;9.566;2023-06-14T01:43:32;91132.25;;;-145.06;100.00
59859;BME280;45734;53.648;9.566;2023-06-14T01:48:34;91218.13;;;-145.06;100.00
59859;BME280;45734;53.648;9.566;2023-06-14T01:53:34;91160.88;;;-145.06;100.00
59859;BME280;45734;53.648;9.566;2023-06-14T01:58:36;91203.81;;;-145.06;100.00
59859;BME280;45734;53.648;9.566;2023-06-14T02:03:36;91167.00;;;-145.06;100.00
59859;BME280;45734;53.648;9.566;2023-06-14T02:08:38;91191.53;;;-145.06;100.00
59859;BME280;45734;53.648;9.566;2023-06-14T02:13:38;91224.25;;;-145.06;100.00
59859;BME280;45734;53.648;9.566;2023-06-14T02:18:38;91218.13;;;-145.06;100.00
59859;BME280;45734;53.648;9.566;2023-06-14T02:23:39;91220.16;;;-145.06;100.00
59859;BME280;45734;53.648;9.566;2023-06-14T02:28:40;91248.78;;;-145.06;100.00
59859;BME280;45734;53.648;9.566;2023-06-14T02:33:40;91293.75;;;-145.06;100.00
59859;BME280;45734;53.648;9.566;2023-06-14T02:38:40;91346.91;;;-145.06;100.00
59859;BME280;45734;53.648;9.566;2023-06-14T02:43:41;91400.06;;;-145.06;100.00
59859;BME280;45734;53.648;9.566;2023-06-14T02:48:41;91420.50;;;-145.06;100.00
59859;BME280;45734;53.648;9.566;2023-06-14T02:53:42;91506.34;;;-145.06;100.00
59859;BME280;45734;53.648;9.566;2023-06-14T02:58:42;91400.06;;;-145.06;100.00
59859;BME280;45734;53.648;9.566;2023-06-14T03:03:42;91389.81;;;-145.06;100.00
59859;BME280;45734;53.648;9.566;2023-06-14T03:08:43;91387.78;;;-145.06;100.00
59859;BME280;45734;53.648;9.566;2023-06-14T03:13:44;90974.88;;;-145.06;100.00
59859;BME280;45734;53.648;9.566;2023-06-14T03:18:45;90827.69;;;-145.06;100.00
59859;BME280;45734;53.648;9.566;2023-06-14T03:23:46;90778.66;;;-145.06;100.00
59859;BME280;45734;53.648;9.566;2023-06-14T03:28:47;90658.06;;;-145.06;100.00
59859;BME280;45734;53.648;9.566;2023-06-14T03:33:49;90510.91;;;-145.06;100.00
59859;BME280;45734;53.648;9.566;2023-06-14T03:38:49;90324.91;;;-145.06;100.00
59859;BME280;45734;53.648;9.566;2023-06-14T03:43:50;90216.59;;;-145.06;100.00
59859;BME280;45734;53.648;9.566;2023-06-14T03:48:50;90012.25;;;-145.06;100.00
59859;BME280;45734;53.648;9.566;2023-06-14T03:53:50;89920.28;;;-145.06;97.32
59859;BME280;45734;53.648;9.566;2023-06-14T03:58:51;89715.94;;;-145.06;92.10
59859;BME280;45734;53.648;9.566;2023-06-14T04:03:51;89603.56;;;-145.06;88.24
59859;BME280;45734;53.648;9.566;2023-06-14T04:08:52;89444.19;;;-145.06;84.18
59859;BME280;45734;53.648;9.566;2023-06-14T04:13:52;89364.50;;;-145.06;78.79
59859;BME280;45734;53.648;9.566;2023-06-14T04:18:54;89276.63;;;-145.06;77.43
59859;BME280;45734;53.648;9.566;2023-06-14T04:23:55;89213.31;;;-145.06;75.50
59859;BME280;45734;53.648;9.566;2023-06-14T04:29:01;89184.69;;;-145.06;75.45
59859;BME280;45734;53.648;9.566;2023-06-14T04:34:01;89066.19;;;-145.06;72.67
59859;BME280;45734;53.648;9.566;2023-06-14T04:39:05;89064.16;;;-145.06;72.26
59859;BME280;45734;53.648;9.566;2023-06-14T04:44:06;89015.13;;;-145.06;71.06
59859;BME280;45734;53.648;9.566;2023-06-14T04:49:07;88976.31;;;-145.06;71.47
59859;BME280;45734;53.648;9.566;2023-06-14T04:54:08;88925.22;;;-145.06;70.84
59859;BME280;45734;53.648;9.566;2023-06-14T04:59:15;88984.47;;;-145.06;70.14
59859;BME280;45734;53.648;9.566;2023-06-14T05:04:18;88935.44;;;-145.06;70.42
59859;BME280;45734;53.648;9.566;2023-06-14T05:09:18;88947.69;;;-145.06;69.50
59859;BME280;45734;53.648;9.566;2023-06-14T05:14:19;88915.00;;;-145.06;68.53
59859;BME280;45734;53.648;9.566;2023-06-14T05:19:20;88833.28;;;-145.06;67.39
59859;BME280;45734;53.648;9.566;2023-06-14T05:24:20;88800.59;;;-145.06;65.18
59859;BME280;45734;53.648;9.566;2023-06-14T05:29:21;88741.38;;;-145.06;63.63
59859;BME280;45734;53.648;9.566;2023-06-14T05:34:21;88722.97;;;-145.06;62.60
59859;BME280;45734;53.648;9.566;2023-06-14T05:39:21;88655.56;;;-145.06;60.72
59859;BME280;45734;53.648;9.566;2023-06-14T05:44:22;88579.97;;;-145.06;58.44
59859;BME280;45734;53.648;9.566;2023-06-14T05:49:22;88563.63;;;-145.06;57.51
59859;BME280;45734;53.648;9.566;2023-06-14T05:54:22;88530.94;;;-145.06;56.69
59859;BME280;45734;53.648;9.566;2023-06-14T05:59:22;88518.69;;;-145.06;55.91
59859;BME280;45734;53.648;9.566;2023-06-14T06:04:23;88320.56;;;-145.06;52.24
59859;BME280;45734;53.648;9.566;2023-06-14T06:09:23;88289.91;;;-145.06;51.85
59859;BME280;45734;53.648;9.566;2023-06-14T06:14:24;88208.19;;;-145.06;49.22
59859;BME280;45734;53.648;9.566;2023-06-14T06:19:24;88175.53;;;-145.06;48.30
59859;BME280;45734;53.648;9.566;2023-06-14T06:24:25;88177.56;;;-145.06;47.18
59859;BME280;45734;53.648;9.566;2023-06-14T06:29:26;88167.34;;;-145.06;46.97
59859;BME280;45734;53.648;9.566;2023-06-14T06:34:26;88126.50;;;-145.06;47.00
59859;BME280;45734;53.648;9.566;2023-06-14T06:39:26;88050.91;;;-145.06;44.88
59859;BME280;45734;53.648;9.566;2023-06-14T06:44:27;88085.66;;;-145.06;44.52
59859;BME280;45734;53.648;9.566;2023-06-14T06:49:27;88065.22;;;-145.06;43.20
59859;BME280;45734;53.648;9.566;2023-06-14T06:54:27;88132.63;;;-145.06;43.60
59859;BME280;45734;53.648;9.566;2023-06-14T06:59:28;88112.19;;;-145.06;43.33
59859;BME280;45734;53.648;9.566;2023-06-14T07:04:28;88093.81;;;-145.06;43.44
59859;BME280;45734;53.648;9.566;2023-06-14T07:09:29;88110.16;;;-145.06;42.21
59859;BME280;45734;53.648;9.566;2023-06-14T07:14:29;88175.53;;;-145.06;41.98
59859;BME280;45734;53.648;9.566;2023-06-14T07:19:30;88206.16;;;-145.06;43.10
59859;BME280;45734;53.648;9.566;2023-06-14T07:24:30;88216.38;;;-145.06;41.82
59859;BME280;45734;53.648;9.566;2023-06-14T07:29:31;88232.72;;;-145.06;42.94
59859;BME280;45734;53.648;9.566;2023-06-14T07:34:31;88263.34;;;-145.06;42.34
59859;BME280;45734;53.648;9.566;2023-06-14T07:39:31;88210.25;;;-145.06;40.85
59859;BME280;45734;53.648;9.566;2023-06-14T07:44:32;88218.41;;;-145.06;41.38
59859;BME280;45734;53.648;9.566;2023-06-14T07:49:32;88206.16;;;-145.06;40.39
59859;BME280;45734;53.648;9.566;2023-06-14T07:54:32;88271.53;;;-145.06;41.26
59859;BME280;45734;53.648;9.566;2023-06-14T07:59:33;88273.56;;;-145.06;41.18
59859;BME280;45734;53.648;9.566;2023-06-14T08:04:33;88234.75;;;-145.06;40.51
59859;BME280;45734;53.648;9.566;2023-06-14T08:09:35;88224.53;;;-145.06;41.73
59859;BME280;45734;53.648;9.566;2023-06-14T08:14:39;88173.47;;;-145.06;40.61
59859;BME280;45734;53.648;9.566;2023-06-14T08:19:43;88247.00;;;-145.06;40.00
59859;BME280;45734;53.648;9.566;2023-06-14T08:24:43;88216.38;;;-145.06;40.34
59859;BME280;45734;53.648;9.566;2023-06-14T08:29:44;88173.47;;;-145.06;39.58
59859;BME280;45734;53.648;9.566;2023-06-14T08:34:44;88255.19;;;-145.06;40.03
59859;BME280;45734;53.648;9.566;2023-06-14T08:39:45;88236.78;;;-145.06;41.93
59859;BME280;45734;53.648;9.566;2023-06-14T08:44:45;88228.63;;;-145.06;40.12
59859;BME280;45734;53.648;9.566;2023-06-14T08:49:46;88298.06;;;-145.06;40.93
59859;BME280;45734;53.648;9.566;2023-06-14T08:54:50;88371.63;;;-145.06;41.32
59859;BME280;45734;53.648;9.566;2023-06-14T08:59:51;88285.81;;;-145.06;40.66
59859;BME280;45734;53.648;9.566;2023-06-14T09:04:55;88265.41;;;-145.06;41.60
59859;BME280;45734;53.648;9.566;2023-06-14T09:10:13;88347.09;;;-145.06;41.61
59859;BME280;45734;53.648;9.566;2023-06-14T09:15:13;88347.09;;;-145.06;40.03
59859;BME280;45734;53.648;9.566;2023-06-14T09:20:14;88353.22;;;-145.06;39.70
59859;BME280;45734;53.648;9.566;2023-06-14T09:25:20;88240.88;;;-145.06;40.56
59859;BME280;45734;53.648;9.566;2023-06-14T09:30:22;88821.03;;;-145.06;40.76
59859;BME280;45734;53.648;9.566;2023-06-14T09:35:22;88835.34;;;-145.06;40.11
59859;BME280;45734;53.648;9.566;2023-06-14T09:40:23;88224.53;;;-145.06;39.50
59859;BME280;45734;53.648;9.566;2023-06-14T09:45:27;88853.72;;;-145.06;41.21
59859;BME280;45734;53.648;9.566;2023-06-14T09:50:33;88392.03;;;-145.06;40.37
59859;BME280;45734;53.648;9.566;2023-06-14T09:55:37;88318.50;;;-145.06;40.79
59859;BME280;45734;53.648;9.566;2023-06-14T10:00:38;88240.88;;;-145.06;38.62
59859;BME280;45734;53.648;9.566;2023-06-14T10:05:42;88294.00;;;-145.06;39.82
59859;BME280;45734;53.648;9.566;2023-06-14T10:10:43;88318.50;;;-145.06;40.73
59859;BME280;45734;53.648;9.566;2023-06-14T10:16:02;88216.38;;;-145.06;38.55
59859;BME280;45734;53.648;9.566;2023-06-14T10:26:27;88565.69;;;-145.06;37.39
59859;BME280;45734;53.648;9.566;2023-06-14T10:31:40;88855.75;;;-145.06;38.95
59859;BME280;45734;53.648;9.566;2023-06-14T10:36:42;88320.56;;;-145.06;38.92
59859;BME280;45734;53.648;9.566;2023-06-14T10:41:51;88273.56;;;-145.06;35.79
59859;BME280;45734;53.648;9.566;2023-06-14T10:46:52;88827.16;;;-145.06;38.76
59859;BME280;45734;53.648;9.566;2023-06-14T10:51:57;88618.78;;;-145.06;39.07
59859;BME280;45734;53.648;9.566;2023-06-14T10:56:58;88612.66;;;-145.06;39.51
59859;BME280;45734;53.648;9.566;2023-06-14T11:02:20;88853.72;;;-145.06;40.08
59859;BME280;45734;53.648;9.566;2023-06-14T11:08:04;88904.78;;;-145.06;38.40
59859;BME280;45734;53.648;9.566;2023-06-14T11:13:12;89011.03;;;-145.06;37.87
59859;BME280;45734;53.648;9.566;2023-06-14T11:18:13;88769.97;;;-145.06;39.72
59859;BME280;45734;53.648;9.566;2023-06-14T11:23:14;88814.91;;;-145.06;39.24
59859;BME280;45734;53.648;9.566;2023-06-14T11:28:15;88708.69;;;-145.06;39.46
59859;BME280;45734;53.648;9.566;2023-06-14T11:33:18;88600.41;;;-145.06;39.48
59859;BME280;45734;53.648;9.566;2023-06-14T11:38:18;88596.31;;;-145.06;37.75
59859;BME280;45734;53.648;9.566;2023-06-14T11:43:19;88553.41;;;-145.06;37.61
59859;BME280;45734;53.648;9.566;2023-06-14T11:48:20;88727.06;;;-145.06;38.63
59859;BME280;45734;53.648;9.566;2023-06-14T11:53:20;89076.41;;;-145.06;40.52
59859;BME280;45734;53.648;9.566;2023-06-14T11:58:20;88904.78;;;-145.06;40.70
59859;BME280;45734;53.648;9.566;2023-06-14T12:03:25;88819.00;;;-145.06;41.83
59859;BME280;45734;53.648;9.566;2023-06-14T12:08:32;88747.50;;;-145.06;38.57
59859;BME280;45734;53.648;9.566;2023-06-14T12:13:39;88678.03;;;-145.06;40.71
59859;BME280;45734;53.648;9.566;2023-06-14T12:18:41;88596.31;;;-145.06;39.13
59859;BME280;45734;53.648;9.566;2023-06-14T12:28:44;88761.78;;;-145.06;38.70
59859;BME280;45734;53.648;9.566;2023-06-14T12:33:46;88694.38;;;-145.06;39.16
59859;BME280;45734;53.648;9.566;2023-06-14T12:38:48;88853.72;;;-145.06;38.40
59859;BME280;45734;53.648;9.566;2023-06-14T12:43:50;88661.69;;;-145.06;38.88
59859;BME280;45734;53.648;9.566;2023-06-14T12:48:51;88606.53;;;-145.06;37.92
59859;BME280;45734;53.648;9.566;2023-06-14T12:53:51;88784.25;;;-145.06;38.76
59859;BME280;45734;53.648;9.566;2023-06-14T12:58:51;88937.47;;;-145.06;37.42
59859;BME280;45734;53.648;9.566;2023-06-14T13:03:52;88843.50;;;-145.06;38.36
59859;BME280;45734;53.648;9.566;2023-06-14T13:08:53;88894.59;;;-145.06;39.39
59859;BME280;45734;53.648;9.566;2023-06-14T13:13:57;88767.91;;;-145.06;38.82
59859;BME280;45734;53.648;9.566;2023-06-14T13:18:57;88614.72;;;-145.06;37.76
59859;BME280;45734;53.648;9.566;2023-06-14T13:23:58;88624.91;;;-145.06;37.11
59859;BME280;45734;53.648;9.566;2023-06-14T13:28:58;88641.25;;;-145.06;37.02
59859;BME280;45734;53.648;9.566;2023-06-14T13:33:58;88526.88;;;-145.06;36.31
59859;BME280;45734;53.648;9.566;2023-06-14T13:38:59;88573.84;;;-145.06;36.53
59859;BME280;45734;53.648;9.566;2023-06-14T13:43:59;88551.38;;;-145.06;36.53
59859;BME280;45734;53.648;9.566;2023-06-14T13:49:00;88970.19;;;-145.06;36.84
59859;BME280;45734;53.648;9.566;2023-06-14T13:54:02;88982.44;;;-145.06;36.14
59859;BME280;45734;53.648;9.566;2023-06-14T13:59:02;88620.84;;;-145.06;36.84
59859;BME280;45734;53.648;9.566;2023-06-14T14:04:03;88612.66;;;-145.06;35.67
59859;BME280;45734;53.648;9.566;2023-06-14T14:09:03;89017.16;;;-145.06;37.68
59859;BME280;45734;53.648;9.566;2023-06-14T14:14:03;89062.09;;;-145.06;38.29
59859;BME280;45734;53.648;9.566;2023-06-14T14:19:05;88972.22;;;-145.06;39.17
59859;BME280;45734;53.648;9.566;2023-06-14T14:24:06;88792.44;;;-145.06;40.38
59859;BME280;45734;53.648;9.566;2023-06-14T14:29:07;88698.47;;;-145.06;36.89
59859;BME280;45734;53.648;9.566;2023-06-14T14:34:07;88667.81;;;-145.06;35.90
59859;BME280;45734;53.648;9.566;2023-06-14T14:39:08;88647.38;;;-145.06;36.34
59859;BME280;45734;53.648;9.566;2023-06-14T14:44:08;88653.53;;;-145.06;37.20
59859;BME280;45734;53.648;9.566;2023-06-14T14:49:09;88606.53;;;-145.06;35.26
59859;BME280;45734;53.648;9.566;2023-06-14T14:54:09;88606.53;;;-145.06;35.68
59859;BME280;45734;53.648;9.566;2023-06-14T14:59:09;88579.97;;;-145.06;34.99
59859;BME280;45734;53.648;9.566;2023-06-14T15:04:10;88955.88;;;-145.06;34.22
59859;BME280;45734;53.648;9.566;2023-06-14T15:09:10;88676.00;;;-145.06;34.54
59859;BME280;45734;53.648;9.566;2023-06-14T15:14:10;88673.94;;;-145.06;35.16
59859;BME280;45734;53.648;9.566;2023-06-14T15:19:11;88637.19;;;-145.06;34.00
59859;BME280;45734;53.648;9.566;2023-06-14T15:24:11;88618.78;;;-145.06;33.19
59859;BME280;45734;53.648;9.566;2023-06-14T15:29:11;88896.63;;;-145.06;34.59
59859;BME280;45734;53.648;9.566;2023-06-14T15:34:11;88708.69;;;-145.06;35.30
59859;BME280;45734;53.648;9.566;2023-06-14T15:39:12;88759.75;;;-145.06;35.61
59859;BME280;45734;53.648;9.566;2023-06-14T15:44:12;88676.00;;;-145.06;33.89
59859;BME280;45734;53.648;9.566;2023-06-14T15:49:13;88741.38;;;-145.06;34.03
59859;BME280;45734;53.648;9.566;2023-06-14T15:54:13;88731.16;;;-145.06;35.79
59859;BME280;45734;53.648;9.566;2023-06-14T15:59:13;88763.84;;;-145.06;34.67
59859;BME280;45734;53.648;9.566;2023-06-14T16:04:14;88790.41;;;-145.06;34.75
59859;BME280;45734;53.648;9.566;2023-06-14T16:09:14;88839.44;;;-145.06;35.17
59859;BME280;45734;53.648;9.566;2023-06-14T16:14:14;88849.63;;;-145.06;35.39
59859;BME280;45734;53.648;9.566;2023-06-14T16:19:15;88904.78;;;-145.06;35.06
59859;BME280;45734;53.648;9.566;2023-06-14T16:24:15;88908.88;;;-145.06;34.32
59859;BME280;45734;53.648;9.566;2023-06-14T16:29:15;88935.44;;;-145.06;34.92
59859;BME280;45734;53.648;9.566;2023-06-14T16:34:16;88951.78;;;-145.06;36.04
59859;BME280;45734;53.648;9.566;2023-06-14T16:39:16;88996.72;;;-145.06;35.97
59859;BME280;45734;53.648;9.566;2023-06-14T16:44:16;89041.69;;;-145.06;35.81
59859;BME280;45734;53.648;9.566;2023-06-14T16:49:18;89049.84;;;-145.06;35.40
59859;BME280;45734;53.648;9.566;2023-06-14T16:54:18;89074.38;;;-145.06;35.55
59859;BME280;45734;53.648;9.566;2023-06-14T16:59:19;89152.00;;;-145.06;36.87
59859;BME280;45734;53.648;9.566;2023-06-14T17:04:19;89180.59;;;-145.06;36.92
59859;BME280;45734;53.648;9.566;2023-06-14T17:09:20;89164.25;;;-145.06;37.03
59859;BME280;45734;53.648;9.566;2023-06-14T17:14:20;89229.66;;;-145.06;37.21
59859;BME280;45734;53.648;9.566;2023-06-14T17:19:20;89284.81;;;-145.06;37.93
59859;BME280;45734;53.648;9.566;2023-06-14T17:24:21;89307.28;;;-145.06;38.48
59859;BME280;45734;53.648;9.566;2023-06-14T17:29:21;89356.31;;;-145.06;40.42
59859;BME280;45734;53.648;9.566;2023-06-14T17:34:23;89356.31;;;-145.06;39.81
59859;BME280;45734;53.648;9.566;2023-06-14T17:39:24;89382.88;;;-145.06;39.69
59859;BME280;45734;53.648;9.566;2023-06-14T17:44:24;89423.75;;;-145.06;39.11
59859;BME280;45734;53.648;9.566;2023-06-14T17:49:24;89403.31;;;-145.06;39.52
59859;BME280;45734;53.648;9.566;2023-06-14T17:54:26;89448.25;;;-145.06;39.63
59859;BME280;45734;53.648;9.566;2023-06-14T17:59:26;89470.75;;;-145.06;40.13
59859;BME280;45734;53.648;9.566;2023-06-14T18:04:27;89509.56;;;-145.06;40.52
59859;BME280;45734;53.648;9.566;2023-06-14T18:09:27;89554.53;;;-145.06;41.89
59859;BME280;45734;53.648;9.566;2023-06-14T18:14:28;89587.22;;;-145.06;41.93
59859;BME280;45734;53.648;9.566;2023-06-14T18:19:28;89601.50;;;-145.06;42.97
59859;BME280;45734;53.648;9.566;2023-06-14T18:24:28;89656.69;;;-145.06;44.24
59859;BME280;45734;53.648;9.566;2023-06-14T18:29:29;89681.19;;;-145.06;45.42
59859;BME280;45734;53.648;9.566;2023-06-14T18:34:29;89668.94;;;-145.06;42.37
59859;BME280;45734;53.648;9.566;2023-06-14T18:39:32;89695.50;;;-145.06;42.71
59859;BME280;45734;53.648;9.566;2023-06-14T18:44:32;89705.72;;;-145.06;41.75
59859;BME280;45734;53.648;9.566;2023-06-14T18:49:33;89764.97;;;-145.06;42.79
59859;BME280;45734;53.648;9.566;2023-06-14T18:54:34;89783.38;;;-145.06;42.11
59859;BME280;45734;53.648;9.566;2023-06-14T18:59:34;89830.38;;;-145.06;43.46
59859;BME280;45734;53.648;9.566;2023-06-14T19:04:35;89858.97;;;-145.06;46.21
59859;BME280;45734;53.648;9.566;2023-06-14T19:09:35;89991.81;;;-145.06;50.36
59859;BME280;45734;53.648;9.566;2023-06-14T19:14:35;90053.13;;;-145.06;53.43
59859;BME280;45734;53.648;9.566;2023-06-14T19:19:35;90185.94;;;-145.06;55.01
59859;BME280;45734;53.648;9.566;2023-06-14T19:24:37;90153.25;;;-145.06;55.02
59859;BME280;45734;53.648;9.566;2023-06-14T19:29:37;90212.50;;;-145.06;53.97
59859;BME280;45734;53.648;9.566;2023-06-14T19:34:37;90198.22;;;-145.06;53.90
59859;BME280;45734;53.648;9.566;2023-06-14T19:39:42;90267.69;;;-145.06;53.58
59859;BME280;45734;53.648;9.566;2023-06-14T19:44:45;90341.28;;;-145.06;55.71
59859;BME280;45734;53.648;9.566;2023-06-14T19:49:46;90361.72;;;-145.06;59.46
59859;BME280;45734;53.648;9.566;2023-06-14T19:54:46;90367.84;;;-145.06;61.32
59859;BME280;45734;53.648;9.566;2023-06-14T19:59:46;90404.63;;;-145.06;62.00
59859;BME280;45734;53.648;9.566;2023-06-14T20:04:47;90455.72;;;-145.06;63.28
59859;BME280;45734;53.648;9.566;2023-06-14T20:09:47;90502.72;;;-145.06;63.40
59859;BME280;45734;53.648;9.566;2023-06-14T20:14:48;90453.69;;;-145.06;61.91
59859;BME280;45734;53.648;9.566;2023-06-14T20:19:49;90418.94;;;-145.06;61.99
59859;BME280;45734;53.648;9.566;2023-06-14T20:24:50;90484.34;;;-145.06;61.71
59859;BME280;45734;53.648;9.566;2023-06-14T20:29:50;90451.63;;;-145.06;60.64
59859;BME280;45734;53.648;9.566;2023-06-14T20:34:52;90463.88;;;-145.06;60.33
59859;BME280;45734;53.648;9.566;2023-06-14T20:39:54;90506.81;;;-145.06;62.98
59859;BME280;45734;53.648;9.566;2023-06-14T20:45:03;90535.44;;;-145.06;64.02
59859;BME280;45734;53.648;9.566;2023-06-14T20:50:04;90512.94;;;-145.06;62.72
59859;BME280;45734;53.648;9.566;2023-06-14T20:55:05;90568.13;;;-145.06;61.46
59859;BME280;45734;53.648;9.566;2023-06-14T21:00:06;90492.50;;;-145.06;60.28
59859;BME280;45734;53.648;9.566;2023-06-14T21:05:10;90480.25;;;-145.06;59.64
59859;BME280;45734;53.648;9.566;2023-06-14T21:10:11;90508.84;;;-145.06;59.29
59859;BME280;45734;53.648;9.566;2023-06-14T21:15:11;90510.91;;;-145.06;59.17
59859;BME280;45734;53.648;9.566;2023-06-14T21:20:11;90510.91;;;-145.06;58.05
59859;BME280;45734;53.648;9.566;2023-06-14T21:25:12;90492.50;;;-145.06;58.31
59859;BME280;45734;53.648;9.566;2023-06-14T21:30:15;90533.38;;;-145.06;56.68
59859;BME280;45734;53.648;9.566;2023-06-14T21:35:18;90562.00;;;-145.06;60.16
59859;BME280;45734;53.648;9.566;2023-06-14T21:40:19;90543.59;;;-145.06;61.74
59859;BME280;45734;53.648;9.566;2023-06-14T21:45:19;90606.97;;;-145.06;62.22
59859;BME280;45734;53.648;9.566;2023-06-14T21:50:20;90580.38;;;-145.06;62.50
59859;BME280;45734;53.648;9.566;2023-06-14T21:55:20;90609.00;;;-145.06;60.00
59859;BME280;45734;53.648;9.566;2023-06-14T22:00:23;90590.59;;;-145.06;64.55
59859;BME280;45734;53.648;9.566;2023-06-14T22:05:24;90686.66;;;-145.06;65.65
59859;BME280;45734;53.648;9.566;2023-06-14T22:10:25;90653.97;;;-145.06;64.25
59859;BME280;45734;53.648;9.566;2023-06-14T22:15:26;90668.28;;;-145.06;62.46
59859;BME280;45734;53.648;9.566;2023-06-14T22:20:27;90615.13;;;-145.06;61.27
59859;BME280;45734;53.648;9.566;2023-06-14T22:25:29;90645.78;;;-145.06;60.68
59859;BME280;45734;53.648;9.566;2023-06-14T22:30:30;90643.75;;;-145.06;60.44
59859;BME280;45734;53.648;9.566;2023-06-14T22:35:32;90604.91;;;-145.06;61.78
59859;BME280;45734;53.648;9.566;2023-06-14T22:40:33;90615.13;;;-145.06;63.01
59859;BME280;45734;53.648;9.566;2023-06-14T22:45:33;90645.78;;;-145.06;63.50
59859;BME280;45734;53.648;9.566;2023-06-14T22:50:36;90696.88;;;-145.06;63.76
59859;BME280;45734;53.648;9.566;2023-06-14T22:55:37;90692.81;;;-145.06;63.41
59859;BME280;45734;53.648;9.566;2023-06-14T23:00:37;90656.00;;;-145.06;64.01
59859;BME280;45734;53.648;9.566;2023-06-14T23:05:38;90700.97;;;-145.06;64.40
59859;BME280;45734;53.648;9.566;2023-06-14T23:10:41;90680.53;;;-145.06;64.34
59859;BME280;45734;53.648;9.566;2023-06-14T23:15:42;90692.81;;;-145.06;65.32
59859;BME280;45734;53.648;9.566;2023-06-14T23:20:42;90721.41;;;-145.06;66.00
59859;BME280;45734;53.648;9.566;2023-06-14T23:25:43;90762.28;;;-145.06;67.32
59859;BME280;45734;53.648;9.566;2023-06-14T23:30:43;90758.22;;;-145.06;68.49
59859;BME280;45734;53.648;9.566;2023-06-14T23:35:45;90758.22;;;-145.06;68.76
59859;BME280;45734;53.648;9.566;2023-06-14T23:40:45;90735.72;;;-145.06;69.42
59859;BME280;45734;53.648;9.566;2023-06-14T23:45:49;90780.69;;;-145.06;70.25
59859;BME280;45734;53.648;9.566;2023-06-14T23:50:53;90795.00;;;-145.06;71.34
59859;BME280;45734;53.648;9.566;2023-06-14T23:55:54;90784.78;;;-145.06;71.23
